createdAt,value
2019-06-10T00:00:50.792Z,16.10
2019-06-10T00:03:20.625Z,16.20
2019-06-10T00:05:51.610Z,16.10
2019-06-10T00:08:20.926Z,16.10
2019-06-10T00:10:51.097Z,16.10
2019-06-10T00:13:20.949Z,16.10
2019-06-10T00:15:51.351Z,16.10
2019-06-10T00:18:35.506Z,16.10
2019-06-10T00:20:51.218Z,16.10
2019-06-10T00:23:21.291Z,16.10
2019-06-10T00:25:51.398Z,16.10
2019-06-10T00:28:21.591Z,16.00
2019-06-10T00:30:51.418Z,16.00
2019-06-10T00:33:21.448Z,16.00
2019-06-10T00:35:51.340Z,16.00
2019-06-10T00:38:21.417Z,16.00
2019-06-10T00:40:51.369Z,16.00
2019-06-10T00:43:21.352Z,16.00
2019-06-10T00:45:51.364Z,16.00
2019-06-10T00:48:26.270Z,16.00
2019-06-10T00:50:51.628Z,16.10
2019-06-10T00:53:21.210Z,16.00
2019-06-10T00:55:51.326Z,15.90
2019-06-10T00:58:21.433Z,15.90
2019-06-10T01:00:51.430Z,15.90
2019-06-10T01:03:20.892Z,15.90
2019-06-10T01:05:50.860Z,15.90
2019-06-10T01:08:21.511Z,15.90
2019-06-10T01:10:51.971Z,15.90
2019-06-10T01:13:20.819Z,15.90
2019-06-10T01:15:51.121Z,15.90
2019-06-10T01:18:34.602Z,15.90
2019-06-10T01:20:51.704Z,15.90
2019-06-10T01:23:21.890Z,15.80
2019-06-10T01:25:51.080Z,15.80
2019-06-10T01:28:22.043Z,15.80
2019-06-10T01:30:51.695Z,15.80
2019-06-10T01:33:21.247Z,15.80
2019-06-10T01:35:51.433Z,15.70
2019-06-10T01:38:21.179Z,15.70
2019-06-10T01:40:51.003Z,15.80
2019-06-10T01:43:21.377Z,15.70
2019-06-10T01:45:51.065Z,15.70
2019-06-10T01:48:20.952Z,15.60
2019-06-10T01:50:51.334Z,15.70
2019-06-10T01:53:21.445Z,15.80
2019-06-10T01:55:51.815Z,15.80
2019-06-10T01:58:23.351Z,15.60
2019-06-10T02:01:03.248Z,15.60
2019-06-10T02:03:31.695Z,15.70
2019-06-10T02:06:01.382Z,15.60
2019-06-10T02:08:31.711Z,15.60
2019-06-10T02:11:01.158Z,15.60
2019-06-10T02:13:33.453Z,15.60
2019-06-10T02:16:02.615Z,15.60
2019-06-10T02:18:31.988Z,15.60
2019-06-10T02:21:01.082Z,15.70
2019-06-10T02:23:31.320Z,15.50
2019-06-10T02:26:01.599Z,15.60
2019-06-10T02:28:31.734Z,15.60
2019-06-10T02:31:03.416Z,15.50
2019-06-10T02:33:34.987Z,15.60
2019-06-10T02:36:03.455Z,15.40
2019-06-10T02:38:35.490Z,15.50
2019-06-10T02:41:03.653Z,15.50
2019-06-10T02:43:33.347Z,15.60
2019-06-10T02:46:00.050Z,15.50
2019-06-10T02:48:30.456Z,15.50
2019-06-10T02:51:04.062Z,15.50
2019-06-10T02:53:36.073Z,15.50
2019-06-10T02:56:04.223Z,15.40
2019-06-10T02:58:38.517Z,15.40
2019-06-10T03:01:04.233Z,15.40
2019-06-10T03:03:42.834Z,15.40
2019-06-10T03:06:07.571Z,15.40
2019-06-10T03:08:35.905Z,15.40
2019-06-10T03:11:03.708Z,15.40
2019-06-10T03:13:33.148Z,15.30
2019-06-10T03:16:22.685Z,15.20
2019-06-10T03:18:52.391Z,15.20
2019-06-10T03:21:20.015Z,15.20
2019-06-10T03:26:17.256Z,15.20
2019-06-10T03:28:45.831Z,15.20
2019-06-10T03:31:15.545Z,15.10
2019-06-10T03:33:47.741Z,15.10
2019-06-10T03:36:14.157Z,15.20
2019-06-10T03:38:43.189Z,15.20
2019-06-10T03:41:12.457Z,15.10
2019-06-10T03:43:42.974Z,15.10
2019-06-10T03:46:13.350Z,15.00
2019-06-10T03:48:43.222Z,15.00
2019-06-10T03:51:12.566Z,15.00
2019-06-10T03:53:42.596Z,15.10
2019-06-10T03:56:12.822Z,15.00
2019-06-10T03:58:43.017Z,15.10
2019-06-10T04:01:12.274Z,15.00
2019-06-10T04:03:42.795Z,15.00
2019-06-10T04:06:12.987Z,15.10
2019-06-10T04:08:43.307Z,15.00
2019-06-10T04:11:12.156Z,15.00
2019-06-10T04:13:43.148Z,15.00
2019-06-10T04:16:13.130Z,15.00
2019-06-10T04:18:43.023Z,15.00
2019-06-10T04:21:12.929Z,15.10
2019-06-10T04:23:42.363Z,15.00
2019-06-10T04:26:12.755Z,15.00
2019-06-10T04:28:43.050Z,15.00
2019-06-10T04:31:13.128Z,15.00
2019-06-10T04:33:42.089Z,15.00
2019-06-10T04:36:13.209Z,15.00
2019-06-10T04:38:42.982Z,15.00
2019-06-10T04:41:12.636Z,15.00
2019-06-10T04:43:42.942Z,15.10
2019-06-10T04:46:12.673Z,15.10
2019-06-10T04:48:42.674Z,15.10
2019-06-10T04:51:12.743Z,15.20
2019-06-10T04:53:43.254Z,15.20
2019-06-10T04:56:12.276Z,15.30
2019-06-10T04:58:43.311Z,15.30
2019-06-10T05:01:18.869Z,15.30
2019-06-10T05:03:46.564Z,15.20
2019-06-10T05:06:14.824Z,15.30
2019-06-10T05:08:43.105Z,15.30
2019-06-10T05:11:12.773Z,15.30
2019-06-10T05:13:42.990Z,15.30
2019-06-10T05:16:12.555Z,15.30
2019-06-10T05:18:42.396Z,15.30
2019-06-10T05:21:13.174Z,15.30
2019-06-10T05:23:42.958Z,15.30
2019-06-10T05:26:13.195Z,15.30
2019-06-10T05:28:43.312Z,15.30
2019-06-10T05:31:12.911Z,15.30
2019-06-10T05:33:42.674Z,15.40
2019-06-10T05:36:13.204Z,15.40
2019-06-10T05:38:43.525Z,15.50
2019-06-10T05:41:13.368Z,15.60
2019-06-10T05:43:43.020Z,15.60
2019-06-10T05:46:13.148Z,15.80
2019-06-10T05:48:43.510Z,15.80
2019-06-10T05:51:12.387Z,15.80
2019-06-10T05:53:42.586Z,15.80
2019-06-10T05:56:12.790Z,15.90
2019-06-10T05:58:43.581Z,15.90
2019-06-10T06:01:13.160Z,15.90
2019-06-10T06:03:43.916Z,16.00
2019-06-10T06:06:12.478Z,16.00
2019-06-10T06:08:42.869Z,16.10
2019-06-10T06:11:12.638Z,16.20
2019-06-10T06:13:43.306Z,16.20
2019-06-10T06:16:12.590Z,16.30
2019-06-10T06:18:42.299Z,16.30
2019-06-10T06:21:22.525Z,16.30
2019-06-10T06:23:43.397Z,16.40
2019-06-10T06:26:16.375Z,16.40
2019-06-10T06:28:42.987Z,16.50
2019-06-10T06:31:12.717Z,16.50
2019-06-10T06:33:43.274Z,16.40
2019-06-10T06:36:12.495Z,16.50
2019-06-10T06:38:43.593Z,16.50
2019-06-10T06:41:13.416Z,16.50
2019-06-10T06:43:44.991Z,16.60
2019-06-10T06:46:12.889Z,16.60
2019-06-10T06:48:43.779Z,16.60
2019-06-10T06:51:12.929Z,16.60
2019-06-10T06:53:48.318Z,16.60
2019-06-10T06:56:12.577Z,16.60
2019-06-10T06:58:43.284Z,16.70
2019-06-10T07:01:14.407Z,16.80
2019-06-10T07:03:44.670Z,16.70
2019-06-10T07:06:13.149Z,16.80
2019-06-10T07:08:44.718Z,16.80
2019-06-10T07:11:13.211Z,16.80
2019-06-10T07:13:45.537Z,16.80
2019-06-10T07:16:13.183Z,16.80
2019-06-10T07:18:48.842Z,16.90
2019-06-10T07:21:13.225Z,16.90
2019-06-10T07:24:03.075Z,16.90
2019-06-10T07:26:34.131Z,16.90
2019-06-10T07:29:02.879Z,16.90
2019-06-10T07:31:33.770Z,17.00
2019-06-10T07:34:02.574Z,17.00
2019-06-10T07:36:32.913Z,17.00
2019-06-10T07:39:03.478Z,17.00
2019-06-10T07:41:32.787Z,17.10
2019-06-10T07:44:03.071Z,17.10
2019-06-10T07:46:33.544Z,17.20
2019-06-10T07:49:03.362Z,17.30
2019-06-10T07:51:32.912Z,17.30
2019-06-10T07:54:03.170Z,17.40
2019-06-10T07:56:37.243Z,17.40
2019-06-10T07:59:03.895Z,17.40
2019-06-10T08:01:33.280Z,17.50
2019-06-10T08:04:03.128Z,17.60
2019-06-10T08:06:33.486Z,17.60
2019-06-10T08:09:02.285Z,17.60
2019-06-10T08:11:33.102Z,17.70
2019-06-10T08:14:04.580Z,17.70
2019-06-10T08:16:32.740Z,17.80
2019-06-10T08:19:21.939Z,17.90
2019-06-10T08:21:32.318Z,18.00
2019-06-10T08:24:03.325Z,18.10
2019-06-10T08:26:32.427Z,18.10
2019-06-10T08:29:04.142Z,18.20
2019-06-10T08:31:33.325Z,18.40
2019-06-10T08:34:02.945Z,18.50
2019-06-10T08:36:33.365Z,18.60
2019-06-10T08:39:03.361Z,18.70
2019-06-10T08:41:32.361Z,18.80
2019-06-10T08:44:02.279Z,18.90
2019-06-10T08:46:32.766Z,19.10
2019-06-10T08:49:03.000Z,19.50
2019-06-10T08:51:32.464Z,19.70
2019-06-10T08:54:02.375Z,19.60
2019-06-10T08:56:32.789Z,19.70
2019-06-10T08:59:03.077Z,20.00
2019-06-10T09:01:31.137Z,20.20
2019-06-10T09:04:03.201Z,20.10
2019-06-10T09:06:32.794Z,19.80
2019-06-10T09:09:03.190Z,19.70
2019-06-10T09:11:32.875Z,19.70
2019-06-10T09:14:02.603Z,19.60
2019-06-10T09:16:32.839Z,19.60
2019-06-10T09:19:02.246Z,19.60
2019-06-10T09:21:33.103Z,19.50
2019-06-10T09:24:03.909Z,19.50
2019-06-10T09:26:33.730Z,19.40
2019-06-10T09:29:02.914Z,19.50
2019-06-10T09:31:33.182Z,19.50
2019-06-10T09:34:03.933Z,19.50
2019-06-10T09:36:32.555Z,19.50
2019-06-10T09:39:04.025Z,19.50
2019-06-10T09:41:40.187Z,19.60
2019-06-10T09:44:03.364Z,19.60
2019-06-10T09:46:33.116Z,19.50
2019-06-10T09:49:02.173Z,19.50
2019-06-10T09:51:32.372Z,19.50
2019-06-10T09:54:06.073Z,19.50
2019-06-10T09:56:33.007Z,19.50
2019-06-10T09:59:03.121Z,19.60
2019-06-10T10:01:32.683Z,19.60
2019-06-10T10:04:01.215Z,19.60
2019-06-10T10:06:29.637Z,19.60
2019-06-10T10:08:58.562Z,19.60
2019-06-10T10:11:28.882Z,19.50
2019-06-10T10:13:57.502Z,19.60
2019-06-10T10:16:26.574Z,19.60
2019-06-10T10:19:00.237Z,19.60
2019-06-10T10:21:24.903Z,19.60
2019-06-10T10:24:06.548Z,19.60
2019-06-10T10:26:23.266Z,19.70
2019-06-10T10:28:56.034Z,19.90
2019-06-10T10:31:23.830Z,20.00
2019-06-10T10:33:52.645Z,20.20
2019-06-10T10:36:22.658Z,20.40
2019-06-10T10:38:51.152Z,20.20
2019-06-10T10:41:19.410Z,20.10
2019-06-10T10:43:50.734Z,20.10
2019-06-10T10:46:17.674Z,20.00
2019-06-10T10:48:47.063Z,20.00
2019-06-10T10:51:15.561Z,19.90
2019-06-10T10:53:48.363Z,20.00
2019-06-10T10:56:13.920Z,19.90
2019-06-10T10:58:43.726Z,19.80
2019-06-10T11:01:15.061Z,19.80
2019-06-10T11:03:44.956Z,19.90
2019-06-10T11:06:12.937Z,20.00
2019-06-10T11:08:44.199Z,20.10
2019-06-10T11:11:13.406Z,20.20
2019-06-10T11:13:45.343Z,20.10
2019-06-10T11:16:14.046Z,20.10
2019-06-10T11:18:42.461Z,20.00
2019-06-10T11:21:13.041Z,20.10
2019-06-10T11:23:43.542Z,20.10
2019-06-10T11:26:12.955Z,20.20
2019-06-10T11:28:42.818Z,20.20
2019-06-10T11:31:13.419Z,20.20
2019-06-10T11:33:43.197Z,20.30
2019-06-10T11:36:13.224Z,20.30
2019-06-10T11:38:40.811Z,20.20
2019-06-10T11:41:09.155Z,20.20
2019-06-10T11:43:37.442Z,20.10
2019-06-10T11:46:07.729Z,20.10
2019-06-10T11:48:36.376Z,20.10
2019-06-10T11:51:05.025Z,20.10
2019-06-10T11:53:34.431Z,20.10
2019-06-10T11:56:03.120Z,20.10
2019-06-10T11:58:33.280Z,20.20
2019-06-10T12:01:03.865Z,20.30
2019-06-10T12:03:31.352Z,20.30
2019-06-10T12:06:02.018Z,20.40
2019-06-10T12:08:29.618Z,20.50
2019-06-10T12:11:01.836Z,20.70
2019-06-10T12:13:27.933Z,20.80
2019-06-10T12:18:26.804Z,20.70
2019-06-10T12:20:59.006Z,20.60
2019-06-10T12:25:56.280Z,20.50
2019-06-10T12:28:23.492Z,20.70
2019-06-10T12:30:56.207Z,20.80
2019-06-10T12:33:25.571Z,20.80
2019-06-10T12:35:57.681Z,20.70
2019-06-10T12:38:23.672Z,20.60
2019-06-10T12:40:55.993Z,20.60
2019-06-10T12:43:23.205Z,20.50
2019-06-10T12:45:53.982Z,20.40
2019-06-10T12:48:23.280Z,20.30
2019-06-10T12:51:05.132Z,20.30
2019-06-10T12:53:26.589Z,20.30
2019-06-10T12:55:55.849Z,20.20
2019-06-10T12:58:24.840Z,20.10
2019-06-10T13:00:54.094Z,20.00
2019-06-10T13:03:23.778Z,20.00
2019-06-10T13:05:53.347Z,19.90
2019-06-10T13:08:23.860Z,19.70
2019-06-10T13:10:53.257Z,19.60
2019-06-10T13:13:22.732Z,19.40
2019-06-10T13:15:53.245Z,19.40
2019-06-10T13:18:23.735Z,19.60
2019-06-10T13:20:53.801Z,19.60
2019-06-10T13:23:28.954Z,19.60
2019-06-10T13:25:58.093Z,19.70
2019-06-10T13:28:22.283Z,20.00
2019-06-10T13:30:54.051Z,20.20
2019-06-10T13:33:22.914Z,20.20
2019-06-10T13:35:53.516Z,20.30
2019-06-10T13:38:22.786Z,20.40
2019-06-10T13:40:53.297Z,20.30
2019-06-10T13:43:23.256Z,20.30
2019-06-10T13:45:53.173Z,20.30
2019-06-10T13:48:23.359Z,20.40
2019-06-10T13:50:52.816Z,20.40
2019-06-10T13:53:21.354Z,20.40
2019-06-10T13:55:52.777Z,20.50
2019-06-10T13:58:26.638Z,20.70
2019-06-10T14:00:57.785Z,21.10
2019-06-10T14:03:26.648Z,21.10
2019-06-10T14:05:58.654Z,21.20
2019-06-10T14:08:24.948Z,21.00
2019-06-10T14:10:53.899Z,21.00
2019-06-10T14:13:23.805Z,20.90
2019-06-10T14:15:53.380Z,20.90
2019-06-10T14:18:23.174Z,20.80
2019-06-10T14:20:53.271Z,20.80
2019-06-10T14:23:22.481Z,20.90
2019-06-10T14:25:52.593Z,21.00
2019-06-10T14:28:38.705Z,21.00
2019-06-10T14:30:54.292Z,20.90
2019-06-10T14:33:24.941Z,20.90
2019-06-10T14:35:54.834Z,20.80
2019-06-10T14:38:27.781Z,20.80
2019-06-10T14:40:56.044Z,20.60
2019-06-10T14:43:24.488Z,20.60
2019-06-10T14:45:53.372Z,20.60
2019-06-10T14:48:23.279Z,20.50
2019-06-10T14:50:52.263Z,20.50
2019-06-10T14:53:22.959Z,20.40
2019-06-10T14:55:53.214Z,20.40
2019-06-10T14:58:23.124Z,20.30
2019-06-10T15:00:54.178Z,20.30
2019-06-10T15:03:20.876Z,20.20
2019-06-10T15:05:49.144Z,20.10
2019-06-10T15:08:17.510Z,20.00
2019-06-10T15:10:45.770Z,19.90
2019-06-10T15:13:14.035Z,19.80
2019-06-10T15:15:42.555Z,19.70
2019-06-10T15:18:12.188Z,19.60
2019-06-10T15:20:42.825Z,19.60
2019-06-10T15:23:13.923Z,19.50
2019-06-10T15:25:50.205Z,19.40
2019-06-10T15:28:13.186Z,19.20
2019-06-10T15:30:43.253Z,19.00
2019-06-10T15:33:13.244Z,18.60
2019-06-10T15:35:42.733Z,18.50
2019-06-10T15:38:13.930Z,18.30
2019-06-10T15:40:43.157Z,18.50
2019-06-10T15:43:11.782Z,18.40
2019-06-10T15:45:40.309Z,18.40
2019-06-10T15:48:10.191Z,18.60
2019-06-10T15:50:58.060Z,18.60
2019-06-10T15:53:26.339Z,18.60
2019-06-10T15:56:13.109Z,18.70
2019-06-10T15:58:26.075Z,18.70
2019-06-10T16:00:54.539Z,18.80
2019-06-10T16:03:25.479Z,18.70
2019-06-10T16:05:53.192Z,18.70
2019-06-10T16:08:22.569Z,18.60
2019-06-10T16:10:52.693Z,18.50
2019-06-10T16:13:24.012Z,18.50
2019-06-10T16:15:53.191Z,18.50
2019-06-10T16:18:25.152Z,18.30
2019-06-10T16:20:52.823Z,18.30
2019-06-10T16:23:24.600Z,18.30
2019-06-10T16:25:53.369Z,18.30
2019-06-10T16:28:23.397Z,18.30
2019-06-10T16:30:53.800Z,18.30
2019-06-10T16:33:24.052Z,18.20
2019-06-10T16:35:51.324Z,18.20
2019-06-10T16:38:22.374Z,18.30
2019-06-10T16:40:49.663Z,18.30
2019-06-10T16:43:17.943Z,18.30
2019-06-10T16:45:46.288Z,18.30
2019-06-10T16:48:14.560Z,18.30
2019-06-10T16:50:42.838Z,18.20
2019-06-10T16:53:13.689Z,18.20
2019-06-10T16:55:41.344Z,18.20
2019-06-10T16:58:10.068Z,18.20
2019-06-10T17:00:38.407Z,18.20
2019-06-10T17:03:08.151Z,18.20
2019-06-10T17:05:36.607Z,18.30
2019-06-10T17:08:05.800Z,18.30
2019-06-10T17:10:34.514Z,18.40
2019-06-10T17:13:04.657Z,18.40
2019-06-10T17:15:33.026Z,18.30
2019-06-10T17:18:02.841Z,18.20
2019-06-10T17:20:34.162Z,18.20
2019-06-10T17:23:03.288Z,18.20
2019-06-10T17:25:33.809Z,18.20
2019-06-10T17:28:15.065Z,18.10
2019-06-10T17:30:34.638Z,18.20
2019-06-10T17:33:02.355Z,18.10
2019-06-10T17:35:35.748Z,18.10
2019-06-10T17:38:02.761Z,18.10
2019-06-10T17:40:31.682Z,18.10
2019-06-10T17:43:02.424Z,18.10
2019-06-10T17:45:32.199Z,18.10
2019-06-10T17:48:02.959Z,18.10
2019-06-10T17:50:32.865Z,17.80
2019-06-10T17:53:02.571Z,17.70
2019-06-10T17:55:34.101Z,17.70
2019-06-10T17:58:02.939Z,17.80
2019-06-10T18:00:34.441Z,17.90
2019-06-10T18:03:03.746Z,18.00
2019-06-10T18:05:31.526Z,18.00
2019-06-10T18:08:02.171Z,18.00
2019-06-10T18:10:29.960Z,18.20
2019-06-10T18:13:12.722Z,18.10
2019-06-10T18:15:28.295Z,18.10
2019-06-10T18:17:56.642Z,18.10
2019-06-10T18:20:26.424Z,18.10
2019-06-10T18:22:54.896Z,18.10
2019-06-10T18:25:24.801Z,18.00
2019-06-10T18:27:56.348Z,17.90
2019-06-10T18:30:25.114Z,18.00
2019-06-10T18:32:54.329Z,17.90
2019-06-10T18:35:25.849Z,17.90
2019-06-10T18:37:56.941Z,17.80
2019-06-10T18:40:27.466Z,17.80
2019-06-10T18:42:57.020Z,17.80
2019-06-10T18:45:25.285Z,17.70
2019-06-10T18:47:55.996Z,17.80
2019-06-10T18:50:28.096Z,17.80
2019-06-10T18:52:58.584Z,17.80
2019-06-10T18:55:26.442Z,17.80
2019-06-10T18:57:59.365Z,17.80
2019-06-10T19:00:44.971Z,17.80
2019-06-10T19:03:10.399Z,17.70
2019-06-10T19:05:33.101Z,17.70
2019-06-10T19:08:02.456Z,17.60
2019-06-10T19:10:33.540Z,17.60
2019-06-10T19:13:05.559Z,17.60
2019-06-10T19:15:33.889Z,17.60
2019-06-10T19:18:03.593Z,17.60
2019-06-10T19:20:36.416Z,17.60
2019-06-10T19:23:02.585Z,17.60
2019-06-10T19:25:33.783Z,17.60
2019-06-10T19:28:01.330Z,17.50
2019-06-10T19:30:31.119Z,17.50
2019-06-10T19:32:59.580Z,17.50
2019-06-10T19:35:27.864Z,17.50
2019-06-10T19:38:12.540Z,17.60
2019-06-10T19:40:42.902Z,17.50
2019-06-10T19:43:12.969Z,17.50
2019-06-10T19:45:46.966Z,17.50
2019-06-10T19:48:16.840Z,17.40
2019-06-10T19:50:51.311Z,17.40
2019-06-10T19:53:19.076Z,17.50
2019-06-10T19:55:47.334Z,17.40
2019-06-10T19:58:15.597Z,17.40
2019-06-10T20:00:50.729Z,17.40
2019-06-10T20:03:14.240Z,17.40
2019-06-10T20:05:44.810Z,17.40
2019-06-10T20:08:12.513Z,17.40
2019-06-10T20:10:40.771Z,17.30
2019-06-10T20:13:09.033Z,17.30
2019-06-10T20:15:37.440Z,17.40
2019-06-10T20:18:05.780Z,17.40
2019-06-10T20:20:34.045Z,17.40
2019-06-10T20:23:03.037Z,17.40
2019-06-10T20:25:32.897Z,17.30
2019-06-10T20:28:02.840Z,17.30
2019-06-10T20:30:33.277Z,17.20
2019-06-10T20:33:03.375Z,17.20
2019-06-10T20:35:32.682Z,17.10
2019-06-10T20:38:04.602Z,17.10
2019-06-10T20:40:32.028Z,17.10
2019-06-10T20:43:03.171Z,16.90
2019-06-10T20:45:33.178Z,16.90
2019-06-10T20:48:02.679Z,17.00
2019-06-10T20:50:32.336Z,17.00
2019-06-10T20:53:12.073Z,17.00
2019-06-10T20:55:40.488Z,17.00
2019-06-10T20:58:04.220Z,16.90
2019-06-10T21:00:36.696Z,16.80
2019-06-10T21:03:05.568Z,16.80
2019-06-10T21:05:34.094Z,16.80
2019-06-10T21:08:03.816Z,16.80
2019-06-10T21:10:34.870Z,16.80
2019-06-10T21:13:05.523Z,16.80
2019-06-10T21:15:35.049Z,16.80
2019-06-10T21:18:03.330Z,16.70
2019-06-10T21:20:33.146Z,16.70
2019-06-10T21:23:03.021Z,16.70
2019-06-10T21:25:32.442Z,16.70
2019-06-10T21:28:03.181Z,16.70
2019-06-10T21:30:38.458Z,16.70
2019-06-10T21:33:03.540Z,16.50
2019-06-10T21:35:31.638Z,16.60
2019-06-10T21:38:00.236Z,16.70
2019-06-10T21:40:28.492Z,16.60
2019-06-10T21:42:56.756Z,16.60
2019-06-10T21:45:25.110Z,16.50
2019-06-10T21:47:54.544Z,16.50
2019-06-10T21:50:23.012Z,16.40
2019-06-10T21:52:53.484Z,16.50
2019-06-10T21:55:22.484Z,16.40
2019-06-10T21:57:53.176Z,16.40
2019-06-10T22:00:23.731Z,16.40
2019-06-10T22:02:58.045Z,16.40
2019-06-10T22:05:22.477Z,16.40
2019-06-10T22:07:54.883Z,16.30
2019-06-10T22:10:22.843Z,16.30
2019-06-10T22:12:53.115Z,16.30
2019-06-10T22:15:22.615Z,16.20
2019-06-10T22:17:52.962Z,16.20
2019-06-10T22:20:22.699Z,16.30
2019-06-10T22:22:53.236Z,16.10
2019-06-10T22:25:22.372Z,16.10
2019-06-10T22:27:51.865Z,16.20
2019-06-10T22:30:22.712Z,16.20
2019-06-10T22:32:52.666Z,16.20
2019-06-10T22:35:22.930Z,16.20
2019-06-10T22:37:52.600Z,16.20
2019-06-10T22:40:22.409Z,16.10
2019-06-10T22:42:53.680Z,16.20
2019-06-10T22:45:20.510Z,16.10
2019-06-10T22:47:49.711Z,16.20
2019-06-10T22:50:18.783Z,16.20
2019-06-10T22:52:47.229Z,16.20
2019-06-10T22:55:15.615Z,16.20
2019-06-10T22:57:44.096Z,16.20
2019-06-10T23:00:13.140Z,16.30
2019-06-10T23:02:43.732Z,16.30
2019-06-10T23:05:13.250Z,16.20
2019-06-10T23:07:43.385Z,16.20
2019-06-10T23:10:12.350Z,16.20
2019-06-10T23:12:42.969Z,16.10
2019-06-10T23:15:12.925Z,16.10
2019-06-10T23:17:42.306Z,16.20
2019-06-10T23:20:12.403Z,16.30
2019-06-10T23:22:41.076Z,16.30
2019-06-10T23:25:09.331Z,16.30
2019-06-10T23:27:40.871Z,16.30
2019-06-10T23:30:11.748Z,16.30
2019-06-10T23:32:38.339Z,16.20
2019-06-10T23:35:06.893Z,16.20
2019-06-10T23:37:35.251Z,16.30
2019-06-10T23:40:04.490Z,16.30
2019-06-10T23:42:33.308Z,16.30
2019-06-10T23:45:04.742Z,16.30
2019-06-10T23:47:32.645Z,16.30
2019-06-10T23:50:04.183Z,16.30
2019-06-10T23:52:32.964Z,16.40
2019-06-10T23:55:03.095Z,16.30
2019-06-10T23:57:32.924Z,16.40
